Time;durP1;ratioP1;P1;durP2;ratioP2;P2;SDS_P1;SDS_P2;PMS_P1;PMS_P2;Temp;Humidity;BMP_temperature;BMP_pressure;BME280_temperature;BME280_humidity;BME280_pressure;Samples;Min_cycle;Max_cycle;Signal;HPM_P1;HPM_P2
2021/01/20 00:04:48;;;;;;;38.80;15.20;;;;;;;-4.48;100.00;95351.81;10493558;28;20373;-71
2021/01/20 00:09:49;;;;;;;26.48;12.23;;;;;;;-4.50;100.00;95351.13;10493169;28;20274;-71
2021/01/20 00:14:49;;;;;;;27.27;14.38;;;;;;;-4.50;100.00;95358.19;10493701;28;20051;-71
2021/01/20 00:19:49;;;;;;;31.20;13.88;;;;;;;-4.68;100.00;95345.25;10492059;28;20037;-71
2021/01/20 00:24:50;;;;;;;26.38;13.60;;;;;;;-4.62;100.00;95347.19;10474826;28;20389;-71
2021/01/20 00:29:50;;;;;;;29.90;13.70;;;;;;;-4.61;100.00;95356.72;10492830;28;20448;-71
2021/01/20 00:34:51;;;;;;;28.67;13.57;;;;;;;-4.73;100.00;95360.63;10492800;28;20025;-71
2021/01/20 00:39:52;;;;;;;25.87;13.90;;;;;;;-4.76;100.00;95359.16;10492013;28;20657;-71
2021/01/20 00:44:52;;;;;;;32.83;13.60;;;;;;;-4.81;100.00;95358.84;10507792;28;20263;-71
2021/01/20 00:49:52;;;;;;;27.97;14.97;;;;;;;-4.84;100.00;95349.50;10492195;28;20012;-71
2021/01/20 00:54:53;;;;;;;25.07;12.37;;;;;;;-4.91;100.00;95356.38;10491968;28;20028;-70
2021/01/20 00:59:53;;;;;;;28.70;14.18;;;;;;;-4.83;100.00;95358.16;10491357;28;20382;-71
2021/01/20 01:04:53;;;;;;;30.70;14.07;;;;;;;-5.05;100.00;95355.19;10491326;28;20081;-70
2021/01/20 01:09:54;;;;;;;33.87;13.70;;;;;;;-5.00;100.00;95358.13;10490930;28;20135;-70
2021/01/20 01:14:54;;;;;;;24.47;12.63;;;;;;;-4.97;100.00;95359.63;10490508;28;20274;-70
2021/01/20 01:19:54;;;;;;;24.90;11.20;;;;;;;-4.90;100.00;95359.81;10489696;28;20327;-70
2021/01/20 01:24:55;;;;;;;28.97;13.13;;;;;;;-4.84;100.00;95348.69;10472630;28;20320;-70
2021/01/20 01:29:55;;;;;;;37.00;12.30;;;;;;;-4.88;100.00;95350.00;10489843;28;20270;-71
2021/01/20 01:34:56;;;;;;;23.33;11.37;;;;;;;-4.88;100.00;95344.75;10471949;28;20847;-71
2021/01/20 01:39:56;;;;;;;20.50;9.83;;;;;;;-5.04;100.00;95316.69;10490092;28;20105;-71
2021/01/20 01:44:56;;;;;;;26.05;10.85;;;;;;;-5.10;100.00;95315.53;10489884;28;20039;-70
2021/01/20 01:49:57;;;;;;;25.92;10.48;;;;;;;-5.10;100.00;95323.41;10489672;28;20103;-71
2021/01/20 01:54:57;;;;;;;27.58;13.98;;;;;;;-5.23;100.00;95325.66;10504952;28;20016;-71
2021/01/20 01:59:58;;;;;;;19.45;9.68;;;;;;;-5.29;100.00;95337.59;10489246;28;20033;-70
2021/01/20 02:04:58;;;;;;;30.20;12.00;;;;;;;-5.14;100.00;95335.19;10488865;28;20024;-71
2021/01/20 02:10:00;;;;;;;26.73;12.93;;;;;;;-5.12;100.00;95335.88;10489083;28;20016;-71
2021/01/20 02:15:15;;;;;;;20.70;9.93;;;;;;;-5.24;100.00;95343.19;10488722;28;21207;-71
2021/01/20 02:20:33;;;;;;;26.15;10.07;;;;;;;-5.22;100.00;95335.16;10488588;28;20109;-71
2021/01/20 02:25:47;;;;;;;17.93;10.00;;;;;;;-5.23;100.00;95342.22;10488683;28;20064;-71
2021/01/20 02:30:48;;;;;;;24.80;12.85;;;;;;;-5.41;100.00;95337.09;10488399;28;20059;-71
2021/01/20 02:35:59;;;;;;;23.38;12.40;;;;;;;-5.40;100.00;95336.13;10488210;28;20108;-70
2021/01/20 02:40:59;;;;;;;23.55;12.07;;;;;;;-5.41;100.00;95334.47;10487739;28;20032;-70
2021/01/20 02:46:00;;;;;;;23.95;12.77;;;;;;;-5.50;100.00;95332.78;10501438;28;20479;-70
2021/01/20 02:51:01;;;;;;;26.17;13.48;;;;;;;-5.58;100.00;95335.38;10484091;28;20016;-70
2021/01/20 02:56:06;;;;;;;22.98;11.90;;;;;;;-5.53;100.00;95335.75;10501452;28;20024;-70
2021/01/20 03:01:09;;;;;;;22.88;10.20;;;;;;;-5.62;100.00;95339.28;10502295;28;20036;-70
2021/01/20 03:06:11;;;;;;;26.52;10.38;;;;;;;-5.61;100.00;95340.94;10501238;28;20016;-71
2021/01/20 03:11:11;;;;;;;28.23;13.45;;;;;;;-5.62;100.00;95341.91;10483930;28;20052;-70
2021/01/20 03:16:12;;;;;;;29.73;12.35;;;;;;;-5.61;100.00;95339.16;10501405;28;20103;-71
2021/01/20 03:21:12;;;;;;;26.27;13.43;;;;;;;-5.47;100.00;95335.09;10515767;28;20492;-71
2021/01/20 03:26:13;;;;;;;26.60;12.07;;;;;;;-5.41;100.00;95326.63;10542410;28;20498;-72
2021/01/20 03:31:13;;;;;;;24.77;13.00;;;;;;;-5.42;100.00;95338.06;10538874;28;20047;-72
2021/01/20 03:36:14;;;;;;;26.83;12.83;;;;;;;-5.32;100.00;95336.16;10541148;28;20286;-72
2021/01/20 03:41:14;;;;;;;30.00;11.48;;;;;;;-5.42;100.00;95332.81;10541981;28;20284;-72
2021/01/20 03:46:15;;;;;;;26.25;12.65;;;;;;;-5.38;100.00;95338.56;10524478;28;20558;-72
2021/01/20 03:51:16;;;;;;;28.45;14.05;;;;;;;-5.24;100.00;95348.44;10543307;28;20031;-73
2021/01/20 03:56:16;;;;;;;25.55;14.63;;;;;;;-5.22;100.00;95335.16;10517264;28;20086;-73
2021/01/20 04:01:17;;;;;;;30.33;14.50;;;;;;;-5.13;100.00;95331.59;10534216;28;20028;-73
2021/01/20 04:06:17;;;;;;;22.75;11.82;;;;;;;-5.19;100.00;95334.84;10533907;28;20281;-72
2021/01/20 04:11:18;;;;;;;20.93;12.77;;;;;;;-5.09;100.00;95342.56;10530598;28;20051;-73
2021/01/20 04:16:19;;;;;;;28.42;13.35;;;;;;;-5.13;100.00;95342.06;10533666;28;20415;-73
2021/01/20 04:21:20;;;;;;;23.95;12.85;;;;;;;-5.02;100.00;95339.16;10532898;28;20077;-72
2021/01/20 04:26:20;;;;;;;24.80;12.65;;;;;;;-4.95;100.00;95347.19;10533547;28;20111;-72
2021/01/20 04:31:21;;;;;;;25.50;12.40;;;;;;;-4.85;100.00;95345.22;10533487;28;20073;-73
2021/01/20 04:36:21;;;;;;;25.10;12.80;;;;;;;-4.84;100.00;95352.13;10533351;28;20020;-72
2021/01/20 04:41:22;;;;;;;21.95;12.93;;;;;;;-4.79;100.00;95366.53;10532765;28;20331;-72
2021/01/20 04:46:24;;;;;;;29.05;13.48;;;;;;;-4.86;100.00;95363.75;10515191;28;20077;-72
2021/01/20 04:51:26;;;;;;;25.50;13.27;;;;;;;-4.95;100.00;95376.03;10532714;28;20024;-71
2021/01/20 04:56:27;;;;;;;25.13;12.63;;;;;;;-4.96;100.00;95384.06;10531987;28;20034;-72
2021/01/20 05:01:27;;;;;;;27.00;12.10;;;;;;;-5.01;100.00;95390.59;10532938;28;20035;-72
2021/01/20 05:06:28;;;;;;;26.73;12.02;;;;;;;-5.14;100.00;95398.09;10532936;28;20384;-73
2021/01/20 05:11:45;;;;;;;23.92;13.40;;;;;;;-5.27;100.00;95422.13;10520403;28;20024;-73
2021/01/20 05:16:50;;;;;;;23.90;12.25;;;;;;;-5.42;100.00;95424.50;10490450;28;20472;-72
2021/01/20 05:22:05;;;;;;;25.73;12.27;;;;;;;-5.33;100.00;95415.72;10497517;28;20399;-73
2021/01/20 05:27:06;;;;;;;25.10;10.60;;;;;;;-5.28;100.00;95417.84;10527691;28;20040;-70
2021/01/20 05:32:19;;;;;;;30.35;13.93;;;;;;;-5.23;100.00;95414.75;10489647;28;20495;-69
2021/01/20 05:37:19;;;;;;;28.73;14.60;;;;;;;-5.15;100.00;95420.84;10523484;28;20034;-69
2021/01/20 05:42:19;;;;;;;26.20;13.10;;;;;;;-4.99;100.00;95432.38;10530489;28;20082;-70
2021/01/20 05:47:20;;;;;;;19.70;12.00;;;;;;;-4.94;100.00;95424.03;10531395;28;20269;-70
2021/01/20 05:52:20;;;;;;;24.52;11.95;;;;;;;-4.93;100.00;95423.03;10511643;28;20327;-70
2021/01/20 05:57:21;;;;;;;26.98;13.98;;;;;;;-4.91;100.00;95415.84;10488358;28;20028;-69
2021/01/20 06:02:23;;;;;;;36.28;15.55;;;;;;;-4.70;100.00;95425.88;10488612;28;20034;-69
2021/01/20 06:07:26;;;;;;;22.45;13.60;;;;;;;-4.59;100.00;95416.88;10489242;28;20535;-69
2021/01/20 06:12:26;;;;;;;33.10;13.13;;;;;;;-4.61;100.00;95439.84;10520400;28;20559;-70
2021/01/20 06:17:35;;;;;;;23.15;11.95;;;;;;;-4.59;100.00;95430.00;10493039;28;20028;-69
2021/01/20 06:22:45;;;;;;;24.35;11.93;;;;;;;-4.64;100.00;95430.47;10498312;28;20082;-69
2021/01/20 06:28:06;;;;;;;32.95;13.20;;;;;;;-4.54;100.00;95425.91;10528336;28;20058;-69
2021/01/20 06:33:12;;;;;;;22.80;12.90;;;;;;;-4.53;100.00;95422.31;10529010;28;20024;-69
2021/01/20 06:38:27;;;;;;;27.00;12.85;;;;;;;-4.33;100.00;95433.28;10528493;28;20086;-69
2021/01/20 06:43:45;;;;;;;24.55;12.68;;;;;;;-4.29;100.00;95442.47;10528962;28;20721;-69
2021/01/20 06:48:54;;;;;;;21.52;11.95;;;;;;;-4.09;100.00;95450.03;10528936;28;20538;-68
2021/01/20 06:54:09;;;;;;;26.77;12.65;;;;;;;-4.10;100.00;95456.28;10528741;28;20064;-68
2021/01/20 06:59:19;;;;;;;31.83;14.85;;;;;;;-3.97;100.00;95453.16;10528279;28;20400;-68
2021/01/20 07:04:39;;;;;;;27.30;13.15;;;;;;;-4.00;100.00;95462.19;10510559;28;20111;-69
2021/01/20 07:09:49;;;;;;;31.27;13.73;;;;;;;-3.95;100.00;95474.81;10517606;28;20488;-69
2021/01/20 07:14:50;;;;;;;27.80;14.00;;;;;;;-3.69;100.00;95479.06;10510902;28;20035;-69
2021/01/20 07:19:51;;;;;;;30.48;13.57;;;;;;;-3.13;100.00;95492.25;10528640;28;20951;-69
2021/01/20 07:24:51;;;;;;;36.53;14.68;;;;;;;-2.64;100.00;95496.50;10527849;28;20032;-69
2021/01/20 07:29:52;;;;;;;31.05;14.75;;;;;;;-2.18;100.00;95495.75;10515992;28;20039;-69
2021/01/20 07:34:52;;;;;;;30.30;13.33;;;;;;;-1.75;100.00;95494.28;10507962;28;20051;-69
2021/01/20 07:40:07;;;;;;;24.10;12.38;;;;;;;-1.62;100.00;95498.13;10495597;28;20165;-69
2021/01/20 07:45:08;;;;;;;33.65;13.80;;;;;;;-1.53;100.00;95493.59;10530215;28;20502;-69
2021/01/20 07:50:09;;;;;;;32.92;14.63;;;;;;;-1.30;100.00;95504.09;10506069;28;20031;-69
2021/01/20 07:55:16;;;;;;;32.55;14.57;;;;;;;-1.52;100.00;95500.50;10488757;28;20423;-69
2021/01/20 08:00:17;;;;;;;29.38;12.10;;;;;;;-1.33;100.00;95505.28;10500466;28;20089;-71
2021/01/20 08:05:17;;;;;;;36.08;14.10;;;;;;;-1.36;100.00;95503.00;10494312;28;20033;-69
2021/01/20 08:10:19;;;;;;;27.35;14.07;;;;;;;-0.92;97.54;95506.66;10512456;28;20040;-69
2021/01/20 08:15:20;;;;;;;41.33;13.15;;;;;;;-0.62;95.41;95499.56;10505894;28;20036;-69
2021/01/20 08:20:20;;;;;;;21.13;11.65;;;;;;;-0.55;93.57;95500.44;10513574;28;20047;-69
2021/01/20 08:25:22;;;;;;;26.15;11.85;;;;;;;-0.42;92.08;95505.09;10530539;28;20483;-68
2021/01/20 08:30:30;;;;;;;38.85;11.63;;;;;;;0.14;89.49;95495.69;10534397;28;20042;-68
2021/01/20 08:35:32;;;;;;;;;;;;;;;0.64;85.33;95483.31;10523233;28;20063;-68
2021/01/20 08:40:33;;;;;;;31.88;11.73;;;;;;;0.97;83.91;95482.72;10491564;28;19942;-68
2021/01/20 08:45:33;;;;;;;34.15;11.50;;;;;;;0.99;80.78;95477.22;10491999;28;20089;-68
2021/01/20 08:50:46;;;;;;;23.20;11.25;;;;;;;1.31;77.29;95477.59;10490684;28;20054;-68
2021/01/20 08:55:54;;;;;;;23.05;11.85;;;;;;;1.90;71.98;95476.19;10491229;28;20028;-68
2021/01/20 09:00:58;;;;;;;28.55;11.23;;;;;;;2.60;69.00;95483.81;10498164;28;20055;-68
2021/01/20 09:06:01;;;;;;;27.05;11.90;;;;;;;3.18;65.34;95480.50;10532981;28;20402;-69
2021/01/20 09:11:02;;;;;;;25.92;11.82;;;;;;;3.49;61.25;95481.63;10533341;28;20076;-69
2021/01/20 09:16:03;;;;;;;25.33;11.95;;;;;;;3.90;56.11;95483.06;10511009;28;20036;-69
2021/01/20 09:21:03;;;;;;;21.38;10.80;;;;;;;4.39;55.00;95463.94;10504718;28;20044;-69
2021/01/20 09:26:04;;;;;;;26.20;13.00;;;;;;;5.26;52.80;95458.66;10499442;28;20535;-70
2021/01/20 09:31:04;;;;;;;50.97;13.97;;;;;;;6.07;50.41;95455.03;10490389;28;20036;-69
2021/01/20 09:36:05;;;;;;;39.15;12.88;;;;;;;5.29;50.51;95444.91;10489976;28;20051;-69
2021/01/20 09:41:05;;;;;;;42.22;13.57;;;;;;;5.35;50.04;95429.06;10511313;28;20024;-69
2021/01/20 09:46:06;;;;;;;29.30;12.17;;;;;;;5.81;50.44;95423.13;10532182;28;20137;-69
2021/01/20 09:51:06;;;;;;;32.15;13.05;;;;;;;6.48;48.10;95414.16;10530395;28;20031;-68
2021/01/20 09:56:07;;;;;;;43.27;13.00;;;;;;;6.70;45.93;95408.28;10530942;28;20024;-69
2021/01/20 10:01:07;;;;;;;37.92;13.18;;;;;;;6.17;46.54;95399.28;10498933;28;20024;-68
2021/01/20 10:06:08;;;;;;;35.17;14.05;;;;;;;7.15;45.41;95396.16;10488626;28;20024;-69
2021/01/20 10:11:08;;;;;;;29.90;13.35;;;;;;;9.22;41.34;95361.13;10488930;28;20035;-69
2021/01/20 10:16:09;;;;;;;32.90;14.32;;;;;;;11.67;36.65;95357.19;10488386;28;20020;-69
2021/01/20 10:21:09;;;;;;;32.13;13.83;;;;;;;13.32;33.50;95351.81;10488234;28;20058;-68
2021/01/20 10:26:09;;;;;;;25.58;12.75;;;;;;;15.30;30.48;95341.00;10487895;28;20121;-70
2021/01/20 10:31:10;;;;;;;35.50;14.27;;;;;;;16.00;28.76;95342.31;10488457;28;20407;-69
2021/01/20 10:36:10;;;;;;;31.13;14.33;;;;;;;15.84;28.68;95339.03;10488090;28;20028;-69
2021/01/20 10:41:10;;;;;;;38.27;14.53;;;;;;;14.26;30.24;95344.88;10487292;28;20169;-69
2021/01/20 10:46:11;;;;;;;44.43;14.90;;;;;;;14.68;30.22;95335.41;10487780;28;20038;-69
2021/01/20 10:51:12;;;;;;;31.58;14.95;;;;;;;15.21;28.95;95334.63;10487981;28;20032;-69
2021/01/20 10:56:12;;;;;;;43.67;17.60;;;;;;;16.18;28.46;95326.34;10486972;28;20503;-68
2021/01/20 11:01:12;;;;;;;39.13;18.88;;;;;;;16.02;28.05;95323.88;10487906;28;20098;-68
2021/01/20 11:06:13;;;;;;;47.30;18.20;;;;;;;16.48;28.08;95311.50;10494378;28;20027;-68
2021/01/20 11:11:14;;;;;;;42.95;19.75;;;;;;;16.00;28.02;95320.63;10495701;28;20036;-69
2021/01/20 11:16:14;;;;;;;39.63;18.13;;;;;;;15.80;28.32;95313.59;10495372;28;20047;-69
2021/01/20 11:21:15;;;;;;;36.00;16.93;;;;;;;16.49;27.67;95298.75;10477422;28;20059;-70
2021/01/20 11:26:15;;;;;;;39.20;16.25;;;;;;;17.43;26.48;95303.03;10495334;28;20313;-70
2021/01/20 11:31:16;;;;;;;31.65;14.50;;;;;;;17.91;25.99;95298.25;10494496;28;20024;-69
2021/01/20 11:36:17;;;;;;;29.03;13.83;;;;;;;18.08;25.31;95305.75;10494767;28;20036;-70
2021/01/20 11:41:17;;;;;;;26.83;12.13;;;;;;;17.97;25.51;95293.50;10494875;28;20094;-70
2021/01/20 11:46:20;;;;;;;32.93;15.00;;;;;;;17.12;26.29;95283.00;10516281;28;20031;-70
2021/01/20 11:51:21;;;;;;;39.35;15.27;;;;;;;16.76;27.09;95281.72;10494189;28;20403;-70
2021/01/20 11:56:21;;;;;;;52.47;17.20;;;;;;;16.92;27.24;95261.34;10493934;28;20032;-70
2021/01/20 12:01:22;;;;;;;37.83;15.27;;;;;;;17.02;27.09;95275.84;10498780;28;20028;-70
2021/01/20 12:06:23;;;;;;;30.25;12.85;;;;;;;15.58;28.31;95273.47;10505013;28;20023;-70
2021/01/20 12:11:24;;;;;;;27.80;14.15;;;;;;;12.93;32.21;95285.00;10532527;28;20060;-69
2021/01/20 12:16:25;;;;;;;30.98;14.10;;;;;;;11.20;35.27;95275.47;10491363;28;20115;-69
2021/01/20 12:21:25;;;;;;;39.97;15.60;;;;;;;10.13;37.34;95281.81;10493021;28;20416;-69
2021/01/20 12:26:26;;;;;;;32.90;15.70;;;;;;;9.21;39.48;95282.53;10492712;28;20266;-69
2021/01/20 12:31:26;;;;;;;41.40;17.02;;;;;;;8.44;41.62;95286.06;10474278;28;20028;-68
2021/01/20 12:36:26;;;;;;;36.92;15.70;;;;;;;8.03;43.04;95280.91;10492380;28;20054;-69
2021/01/20 12:41:27;;;;;;;37.43;16.63;;;;;;;7.83;44.14;95289.41;10492469;28;20403;-69
2021/01/20 12:46:28;;;;;;;34.00;16.17;;;;;;;7.64;44.81;95294.16;10491819;28;20278;-69
2021/01/20 12:51:28;;;;;;;32.72;14.50;;;;;;;7.10;46.13;95292.63;10491873;28;20431;-69
2021/01/20 12:56:29;;;;;;;31.47;14.40;;;;;;;6.98;47.48;95294.53;10491463;28;20059;-69
2021/01/20 13:01:29;;;;;;;27.88;13.57;;;;;;;6.97;47.46;95290.22;10491161;28;20040;-69
2021/01/20 13:06:30;;;;;;;43.05;15.35;;;;;;;6.82;47.56;95296.06;10506920;28;20078;-70
2021/01/20 13:11:30;;;;;;;42.40;14.75;;;;;;;6.91;48.03;95294.66;10491239;28;20020;-68
2021/01/20 13:16:32;;;;;;;30.92;13.13;;;;;;;6.75;48.17;95295.38;10472846;28;20776;-68
2021/01/20 13:21:34;;;;;;;37.47;14.23;;;;;;;6.71;48.82;95291.56;10490048;28;20507;-68
2021/01/20 13:26:34;;;;;;;35.25;13.35;;;;;;;6.04;51.44;95306.06;10489286;28;20051;-69
2021/01/20 13:31:34;;;;;;;34.90;13.10;;;;;;;6.13;52.40;95310.03;10490266;28;20143;-69
2021/01/20 13:36:35;;;;;;;27.00;13.93;;;;;;;6.16;53.08;95294.34;10489521;28;20351;-69
2021/01/20 13:41:35;;;;;;;28.63;13.77;;;;;;;6.18;53.65;95302.13;10489833;28;20271;-69
2021/01/20 13:46:36;;;;;;;47.75;13.48;;;;;;;5.98;56.16;95308.59;10489991;28;20274;-69
2021/01/20 13:51:36;;;;;;;41.42;13.02;;;;;;;5.87;57.09;95308.56;10489011;28;20035;-69
2021/01/20 13:56:36;;;;;;;34.97;13.37;;;;;;;5.63;57.97;95314.66;10471186;28;20408;-69
2021/01/20 14:01:37;;;;;;;26.67;12.50;;;;;;;5.16;61.66;95314.47;10489130;28;20383;-69
2021/01/20 14:06:37;;;;;;;28.10;12.00;;;;;;;4.96;64.31;95304.88;10488529;28;20047;-69
2021/01/20 14:11:37;;;;;;;26.93;10.87;;;;;;;4.81;66.80;95307.09;10488673;28;20275;-69
2021/01/20 14:16:38;;;;;;;37.43;13.87;;;;;;;4.51;70.44;95318.50;10513974;28;20296;-69
2021/01/20 14:21:38;;;;;;;28.43;10.80;;;;;;;4.49;71.04;95312.56;10508393;28;20052;-69
2021/01/20 14:26:39;;;;;;;25.20;11.77;;;;;;;4.55;70.54;95319.69;10488204;28;20028;-69
2021/01/20 14:31:39;;;;;;;24.90;11.07;;;;;;;4.50;70.77;95330.16;10487933;28;20036;-69
2021/01/20 14:36:39;;;;;;;21.98;10.38;;;;;;;4.22;74.10;95326.13;10488495;28;20760;-69
2021/01/20 14:41:40;;;;;;;28.97;11.40;;;;;;;4.31;74.80;95331.16;10493434;28;20028;-69
2021/01/20 14:46:42;;;;;;;29.20;11.33;;;;;;;4.32;75.76;95319.50;10514950;28;20028;-69
2021/01/20 14:51:44;;;;;;;27.77;10.02;;;;;;;4.25;77.83;95335.50;10487826;28;21017;-69
2021/01/20 14:56:44;;;;;;;18.00;9.80;;;;;;;4.13;80.15;95332.78;10525543;28;20032;-73
2021/01/20 15:01:45;;;;;;;32.60;9.47;;;;;;;4.03;81.19;95333.25;10529078;28;20468;-72
2021/01/20 15:06:45;;;;;;;26.38;9.45;;;;;;;3.96;83.12;95342.31;10528939;28;20274;-72
2021/01/20 15:11:46;;;;;;;28.33;11.73;;;;;;;3.89;83.97;95337.03;10528272;28;20032;-72
2021/01/20 15:16:46;;;;;;;25.93;12.70;;;;;;;3.82;86.43;95345.03;10486340;28;20793;-72
2021/01/20 15:21:46;;;;;;;31.97;15.07;;;;;;;3.65;86.69;95351.94;10486479;28;20328;-72
2021/01/20 15:26:47;;;;;;;37.53;18.20;;;;;;;3.64;86.07;95344.97;10498767;28;20107;-72
2021/01/20 15:31:47;;;;;;;42.00;17.63;;;;;;;3.61;86.93;95361.34;10518151;28;20270;-72
2021/01/20 15:36:47;;;;;;;45.47;18.47;;;;;;;3.58;88.94;95366.06;10515800;28;20032;-72
2021/01/20 15:41:48;;;;;;;49.47;18.70;;;;;;;3.64;89.24;95360.91;10569608;28;20031;-72
2021/01/20 15:46:48;;;;;;;42.83;19.87;;;;;;;3.52;89.89;95363.47;10570427;28;20027;-72
2021/01/20 15:51:48;;;;;;;54.77;22.47;;;;;;;3.50;90.92;95373.47;10560844;28;20120;-72
2021/01/20 15:56:49;;;;;;;56.97;23.87;;;;;;;3.38;91.43;95383.97;10519919;28;20308;-72
2021/01/20 16:01:50;;;;;;;54.53;22.75;;;;;;;3.42;91.97;95385.19;10496138;28;20058;-72
2021/01/20 16:06:50;;;;;;;50.22;24.50;;;;;;;3.39;92.95;95382.91;10506885;28;20024;-71
2021/01/20 16:11:51;;;;;;;47.53;21.07;;;;;;;3.35;93.10;95395.00;10534011;28;20034;-71
2021/01/20 16:16:51;;;;;;;64.80;26.73;;;;;;;3.31;93.98;95391.13;10492543;28;20067;-72
2021/01/20 16:21:52;;;;;;;53.27;24.10;;;;;;;3.21;94.17;95405.69;10493112;28;20517;-71
2021/01/20 16:26:52;;;;;;;59.80;25.77;;;;;;;3.27;93.63;95389.94;10492265;28;20278;-72
2021/01/20 16:31:52;;;;;;;56.17;23.70;;;;;;;3.17;94.64;95399.16;10491894;28;20029;-72
2021/01/20 16:36:53;;;;;;;60.77;23.07;;;;;;;3.15;96.07;95387.91;10504140;28;20035;-68
2021/01/20 16:41:53;;;;;;;47.97;22.88;;;;;;;3.07;98.98;95382.88;10532498;28;20784;-68
2021/01/20 16:46:53;;;;;;;44.63;21.00;;;;;;;2.87;100.00;95385.56;10526540;28;20090;-68
2021/01/20 16:51:54;;;;;;;58.08;23.42;;;;;;;2.74;100.00;95397.03;10528395;28;20036;-68
2021/01/20 16:56:54;;;;;;;59.53;22.70;;;;;;;2.69;100.00;95405.63;10525835;28;20032;-69
2021/01/20 17:01:55;;;;;;;47.58;19.10;;;;;;;2.57;100.00;95401.97;10497625;28;20213;-69
2021/01/20 17:06:59;;;;;;;46.25;21.27;;;;;;;2.56;100.00;95408.31;10506126;28;20013;-69
2021/01/20 17:12:00;;;;;;;48.25;19.88;;;;;;;2.48;100.00;95411.97;10480784;28;20032;-68
2021/01/20 17:17:00;;;;;;;46.95;20.20;;;;;;;2.55;100.00;95406.66;10482773;28;20032;-68
2021/01/20 17:22:00;;;;;;;49.43;21.83;;;;;;;2.45;100.00;95409.72;10486910;28;20052;-68
2021/01/20 17:27:01;;;;;;;51.40;22.27;;;;;;;2.39;100.00;95414.03;10487254;28;20108;-68
2021/01/20 17:32:01;;;;;;;60.20;22.83;;;;;;;2.26;100.00;95418.50;10492483;28;20285;-68
2021/01/20 17:37:01;;;;;;;56.63;22.67;;;;;;;2.16;100.00;95424.22;10509902;28;20024;-69
2021/01/20 17:42:02;;;;;;;49.38;22.42;;;;;;;2.04;100.00;95421.38;10527331;28;20281;-69
2021/01/20 17:47:02;;;;;;;57.53;21.58;;;;;;;2.07;100.00;95422.81;10527885;28;20103;-69
2021/01/20 17:52:04;;;;;;;57.78;23.50;;;;;;;2.09;100.00;95428.72;10526992;28;20020;-69
2021/01/20 17:57:04;;;;;;;50.92;22.23;;;;;;;2.16;100.00;95417.09;10537094;28;20042;-69
2021/01/20 18:02:05;;;;;;;47.75;22.42;;;;;;;2.22;100.00;95423.41;10524638;28;20062;-69
2021/01/20 18:07:05;;;;;;;46.38;22.23;;;;;;;2.19;100.00;95429.09;10523893;28;20079;-69
2021/01/20 18:12:06;;;;;;;60.78;23.00;;;;;;;2.14;100.00;95419.13;10523193;28;20471;-69
2021/01/20 18:17:07;;;;;;;47.65;21.20;;;;;;;2.16;100.00;95425.06;10525515;28;20031;-69
2021/01/20 18:22:07;;;;;;;49.70;22.27;;;;;;;2.14;100.00;95429.72;10523474;28;20051;-69
2021/01/20 18:27:08;;;;;;;46.78;20.45;;;;;;;2.00;100.00;95431.56;10523717;28;20035;-69
2021/01/20 18:32:09;;;;;;;47.67;20.93;;;;;;;1.80;100.00;95434.19;10525131;28;20027;-69
2021/01/20 18:37:10;;;;;;;48.05;20.63;;;;;;;1.74;100.00;95428.84;10527108;28;20059;-69
2021/01/20 18:42:11;;;;;;;46.53;20.92;;;;;;;1.75;100.00;95433.94;10512492;28;20036;-69
2021/01/20 18:47:12;;;;;;;39.17;19.13;;;;;;;1.68;100.00;95433.13;10487161;28;20043;-69
2021/01/20 18:52:12;;;;;;;44.17;19.92;;;;;;;1.64;100.00;95438.00;10527174;28;20461;-70
2021/01/20 18:57:13;;;;;;;38.53;18.80;;;;;;;1.58;100.00;95422.91;10488217;28;20039;-70
2021/01/20 19:02:13;;;;;;;41.80;18.35;;;;;;;1.57;100.00;95431.88;10486435;28;20032;-69
2021/01/20 19:07:14;;;;;;;41.00;18.75;;;;;;;1.60;100.00;95441.25;10514508;28;20064;-69
2021/01/20 19:12:15;;;;;;;42.50;17.58;;;;;;;1.60;100.00;95439.41;10508903;28;20024;-69
2021/01/20 19:17:16;;;;;;;39.33;15.68;;;;;;;1.56;100.00;95421.47;10508848;28;20032;-69
2021/01/20 19:22:16;;;;;;;31.98;15.80;;;;;;;1.53;100.00;95425.31;10526835;28;20832;-69
2021/01/20 19:27:17;;;;;;;32.53;14.85;;;;;;;1.62;100.00;95434.75;10508042;28;20517;-69
2021/01/20 19:32:18;;;;;;;34.40;14.77;;;;;;;1.60;100.00;95434.09;10511287;28;20035;-69
2021/01/20 19:37:19;;;;;;;34.13;14.50;;;;;;;1.57;100.00;95431.88;10524095;28;20032;-69
2021/01/20 19:42:19;;;;;;;38.00;16.30;;;;;;;1.43;100.00;95435.50;10527475;28;20030;-69
2021/01/20 19:47:19;;;;;;;32.60;14.20;;;;;;;1.25;100.00;95430.72;10528962;28;20111;-69
2021/01/20 19:52:20;;;;;;;30.17;14.33;;;;;;;1.29;100.00;95438.06;10490982;28;20275;-69
2021/01/20 19:57:20;;;;;;;42.57;17.50;;;;;;;1.32;100.00;95436.88;10490320;28;21184;-69
2021/01/20 20:02:21;;;;;;;30.83;14.15;;;;;;;1.36;100.00;95430.16;10489894;28;20519;-69
2021/01/20 20:07:21;;;;;;;34.40;14.53;;;;;;;1.31;100.00;95428.13;10489183;28;20031;-69
2021/01/20 20:12:22;;;;;;;37.00;15.03;;;;;;;1.14;100.00;95448.00;10489327;28;20274;-69
2021/01/20 20:17:22;;;;;;;34.72;15.70;;;;;;;1.02;100.00;95442.44;10490351;28;20032;-69
2021/01/20 20:22:23;;;;;;;36.67;16.77;;;;;;;1.09;100.00;95418.63;10490355;28;20074;-69
2021/01/20 20:27:25;;;;;;;34.03;15.60;;;;;;;1.04;100.00;95432.47;10489270;28;20650;-69
2021/01/20 20:32:26;;;;;;;32.78;15.27;;;;;;;1.08;100.00;95436.34;10497086;28;20036;-69
2021/01/20 20:37:27;;;;;;;31.48;14.95;;;;;;;1.18;100.00;95444.75;10501163;28;20032;-68
2021/01/20 20:42:28;;;;;;;38.40;15.95;;;;;;;1.19;100.00;95435.78;10470652;28;20032;-69
2021/01/20 20:47:28;;;;;;;30.42;14.55;;;;;;;1.18;100.00;95433.34;10490526;28;20033;-69
2021/01/20 20:52:28;;;;;;;36.65;14.00;;;;;;;1.06;100.00;95435.75;10489399;28;20167;-69
2021/01/20 20:57:29;;;;;;;29.75;14.45;;;;;;;1.03;100.00;95441.41;10489151;28;20036;-69
2021/01/20 21:02:29;;;;;;;29.73;14.65;;;;;;;0.89;100.00;95445.00;10489804;28;20075;-69
2021/01/20 21:07:30;;;;;;;27.58;14.60;;;;;;;0.82;100.00;95455.53;10489472;28;20021;-69
2021/01/20 21:12:30;;;;;;;24.85;13.02;;;;;;;0.77;100.00;95466.72;10489166;28;20051;-69
2021/01/20 21:17:31;;;;;;;28.02;13.38;;;;;;;0.74;100.00;95461.00;10487611;28;20029;-69
2021/01/20 21:22:31;;;;;;;29.03;14.53;;;;;;;0.57;100.00;95466.56;10489077;28;20413;-69
2021/01/20 21:27:33;;;;;;;33.70;15.40;;;;;;;0.56;100.00;95472.88;10489216;28;20369;-69
2021/01/20 21:32:33;;;;;;;34.42;16.55;;;;;;;0.37;100.00;95478.84;10497228;28;20023;-69
2021/01/20 21:37:33;;;;;;;30.73;14.63;;;;;;;0.36;100.00;95475.34;10530219;28;20487;-69
2021/01/20 21:42:34;;;;;;;41.40;15.32;;;;;;;0.30;100.00;95476.13;10529861;28;20110;-69
2021/01/20 21:47:34;;;;;;;30.27;16.40;;;;;;;0.30;100.00;95465.56;10519065;28;20033;-69
2021/01/20 21:52:35;;;;;;;32.10;15.33;;;;;;;0.21;100.00;95446.38;10470963;28;20039;-68
2021/01/20 21:57:35;;;;;;;32.00;18.23;;;;;;;0.30;100.00;95460.28;10487137;28;20311;-67
2021/01/20 22:02:35;;;;;;;39.67;18.80;;;;;;;0.02;100.00;95460.22;10486827;28;20036;-68
2021/01/20 22:07:36;;;;;;;37.65;16.42;;;;;;;0.12;100.00;95450.94;10486555;28;20032;-69
2021/01/20 22:12:37;;;;;;;40.53;16.67;;;;;;;0.19;100.00;95458.94;10486656;28;20471;-68
2021/01/20 22:17:37;;;;;;;37.85;16.60;;;;;;;0.24;100.00;95459.22;10473232;28;20286;-68
2021/01/20 22:22:38;;;;;;;36.87;15.20;;;;;;;0.25;100.00;95438.88;10528005;28;20048;-68
2021/01/20 22:27:39;;;;;;;37.30;17.60;;;;;;;0.12;100.00;95450.94;10528394;28;20436;-68
2021/01/20 22:32:39;;;;;;;39.83;16.70;;;;;;;-0.12;100.00;95446.06;10527906;28;20031;-68
2021/01/20 22:37:40;;;;;;;34.00;15.80;;;;;;;-0.15;100.00;95446.44;10528208;28;20024;-68
2021/01/20 22:42:40;;;;;;;35.30;16.85;;;;;;;-0.53;100.00;95448.28;10528352;28;20028;-68
2021/01/20 22:47:40;;;;;;;34.45;18.33;;;;;;;-0.54;100.00;95446.66;10528480;28;20099;-68
2021/01/20 22:52:44;;;;;;;39.60;18.55;;;;;;;-0.59;100.00;95441.09;10527246;28;20093;-68